createdAt,value
2022-11-08T00:01:44.413Z,7.75
2022-11-08T00:04:16.892Z,7.80
2022-11-08T00:07:03.383Z,7.63
2022-11-08T00:09:50.382Z,7.05
2022-11-08T00:12:36.939Z,7.35
2022-11-08T00:15:07.142Z,6.82
2022-11-08T00:17:37.752Z,7.30
2022-11-08T00:20:10.426Z,7.25
2022-11-08T00:22:42.047Z,6.70
2022-11-08T00:25:12.195Z,7.45
2022-11-08T00:38:23.108Z,7.32
2022-11-08T00:40:54.823Z,6.82
2022-11-08T00:43:26.959Z,6.20
2022-11-08T00:45:55.802Z,7.53
2022-11-08T00:48:24.491Z,6.85
2022-11-08T00:51:03.919Z,7.10
2022-11-08T00:53:34.824Z,6.47
2022-11-08T00:56:04.536Z,6.22
2022-11-08T00:58:33.702Z,6.50
2022-11-08T01:01:02.652Z,6.28
2022-11-08T01:03:31.847Z,6.50
2022-11-08T01:06:08.600Z,7.18
2022-11-08T01:08:39.178Z,6.30
2022-11-08T01:11:10.110Z,6.57
2022-11-08T01:13:42.164Z,6.70
2022-11-08T01:16:13.775Z,6.57
2022-11-08T01:18:45.938Z,6.05
2022-11-08T01:23:50.871Z,6.25
2022-11-08T01:26:22.121Z,6.43
2022-11-08T01:28:53.271Z,6.07
2022-11-08T01:31:24.195Z,6.10
2022-11-08T01:33:58.494Z,6.20
2022-11-08T01:36:30.133Z,6.32
2022-11-08T01:39:00.534Z,5.97
2022-11-08T01:41:29.740Z,6.20
2022-11-08T01:43:59.240Z,6.57
2022-11-08T01:46:42.915Z,6.50
2022-11-08T01:49:28.208Z,6.43
2022-11-08T01:52:07.808Z,5.32
2022-11-08T01:54:42.958Z,5.75
2022-11-08T01:57:22.111Z,5.70
2022-11-08T01:59:55.762Z,5.82
2022-11-08T02:02:25.146Z,5.80
2022-11-08T02:04:56.486Z,5.97
2022-11-08T02:07:26.726Z,6.40
2022-11-08T02:09:58.663Z,6.50
2022-11-08T02:12:29.507Z,5.65
2022-11-08T02:15:04.838Z,6.32
2022-11-08T02:17:33.658Z,6.53
2022-11-08T02:20:04.600Z,6.15
2022-11-08T02:22:42.010Z,6.68
2022-11-08T02:25:15.753Z,6.13
2022-11-08T02:27:46.634Z,6.70
2022-11-08T02:30:15.726Z,5.45
2022-11-08T02:32:46.216Z,6.10
2022-11-08T02:35:22.564Z,6.53
2022-11-08T02:37:51.894Z,6.55
2022-11-08T02:40:22.580Z,6.43
2022-11-08T02:42:54.699Z,6.30
2022-11-08T02:45:23.267Z,6.05
2022-11-08T02:47:54.693Z,6.25
2022-11-08T02:50:23.841Z,5.57
2022-11-08T02:52:52.697Z,6.20
2022-11-08T02:55:23.155Z,6.32
2022-11-08T02:57:52.056Z,6.30
2022-11-08T03:00:21.048Z,5.70
2022-11-08T03:02:53.301Z,6.30
2022-11-08T03:05:23.607Z,6.32
2022-11-08T03:07:52.763Z,5.95
2022-11-08T03:10:25.700Z,5.97
2022-11-08T03:12:58.972Z,5.72
2022-11-08T03:15:27.753Z,5.68
2022-11-08T03:17:57.382Z,5.88
2022-11-08T03:20:32.176Z,5.60
2022-11-08T03:23:03.086Z,4.95
2022-11-08T03:25:41.042Z,5.78
2022-11-08T03:28:10.974Z,4.88
2022-11-08T03:30:42.519Z,5.03
2022-11-08T03:33:11.382Z,5.43
2022-11-08T03:35:40.056Z,5.35
2022-11-08T03:38:12.293Z,6.45
2022-11-08T03:40:42.559Z,5.22
2022-11-08T03:43:11.842Z,5.22
2022-11-08T03:45:40.961Z,5.25
2022-11-08T03:48:10.187Z,5.75
2022-11-08T03:50:38.711Z,5.40
2022-11-08T03:53:09.268Z,5.30
2022-11-08T03:55:40.482Z,5.15
2022-11-08T03:58:10.819Z,5.13
2022-11-08T04:00:44.879Z,5.75
2022-11-08T04:03:16.657Z,5.93
2022-11-08T04:08:16.902Z,5.70
2022-11-08T04:10:47.190Z,4.75
2022-11-08T04:13:37.612Z,4.93
2022-11-08T04:16:07.279Z,5.15
2022-11-08T04:19:08.630Z,5.85
2022-11-08T04:21:38.593Z,5.50
2022-11-08T04:24:08.733Z,6.18
2022-11-08T04:26:39.779Z,5.68
2022-11-08T04:29:14.410Z,6.07
2022-11-08T04:31:46.524Z,5.65
2022-11-08T04:34:21.473Z,5.78
2022-11-08T04:36:53.939Z,6.35
2022-11-08T04:39:25.809Z,6.05
2022-11-08T04:42:01.896Z,6.13
2022-11-08T04:44:48.422Z,5.90
2022-11-08T04:47:17.285Z,5.75
2022-11-08T04:52:18.439Z,5.35
2022-11-08T04:54:49.265Z,5.43
2022-11-08T04:59:58.389Z,4.60
2022-11-08T05:02:26.994Z,4.72
2022-11-08T05:04:57.361Z,5.43
2022-11-08T05:07:26.310Z,5.20
2022-11-08T05:10:02.192Z,5.60
2022-11-08T05:12:36.425Z,5.28
2022-11-08T05:15:11.362Z,5.32
2022-11-08T05:17:44.114Z,5.72
2022-11-08T05:20:37.811Z,5.50
2022-11-08T05:23:26.841Z,5.75
2022-11-08T05:26:06.934Z,5.75
2022-11-08T05:28:58.943Z,4.93
2022-11-08T05:31:35.563Z,5.75
2022-11-08T05:34:11.770Z,5.50
2022-11-08T05:36:56.352Z,5.32
2022-11-08T05:39:31.927Z,5.63
2022-11-08T05:42:20.185Z,5.90
2022-11-08T05:45:01.972Z,5.50
2022-11-08T05:47:38.841Z,6.05
2022-11-08T05:50:15.474Z,5.60
2022-11-08T05:52:56.921Z,6.00
2022-11-08T05:55:34.737Z,5.63
2022-11-08T05:58:07.980Z,6.18
2022-11-08T06:00:43.714Z,5.90
2022-11-08T06:03:29.968Z,6.15
2022-11-08T06:06:07.030Z,5.93
2022-11-08T06:09:12.572Z,5.65
2022-11-08T06:12:11.888Z,5.32
2022-11-08T06:14:54.833Z,5.15
2022-11-08T06:18:24.553Z,5.43
2022-11-08T06:21:41.654Z,6.22
2022-11-08T06:32:25.012Z,5.57
2022-11-08T06:36:12.627Z,5.13
2022-11-08T06:39:20.412Z,5.70
2022-11-08T06:42:19.705Z,5.03
2022-11-08T06:53:28.946Z,5.68
2022-11-08T07:09:09.819Z,5.70
2022-11-08T07:12:36.194Z,5.78
2022-11-08T07:16:04.898Z,7.05
2022-11-08T07:19:40.212Z,5.63
2022-11-08T07:23:02.733Z,5.72
2022-11-08T07:30:14.717Z,6.28
2022-11-08T07:34:05.975Z,6.78
2022-11-08T07:42:49.695Z,7.95
2022-11-08T08:22:44.537Z,5.38
2022-11-08T09:13:30.697Z,3.78
2022-11-08T09:16:31.452Z,4.10
2022-11-08T09:57:14.575Z,3.63
2022-11-08T10:04:55.662Z,2.70
2022-11-08T10:22:12.193Z,3.15
2022-11-08T10:30:34.128Z,2.38
2022-11-08T10:34:04.060Z,2.63
2022-11-08T13:07:20.055Z,6.63
2022-11-08T13:10:27.105Z,5.72
2022-11-08T13:13:56.868Z,6.72
2022-11-08T13:16:52.581Z,4.90
2022-11-08T13:20:10.761Z,5.57
2022-11-08T13:23:49.013Z,6.38
2022-11-08T13:30:23.548Z,4.90
2022-11-08T13:33:38.708Z,4.75
2022-11-08T13:43:24.981Z,5.82
2022-11-08T13:50:47.905Z,5.25
2022-11-08T13:54:03.065Z,4.78
2022-11-08T13:58:35.593Z,5.32
2022-11-08T14:02:05.318Z,9.98
2022-11-08T14:05:10.325Z,7.40
2022-11-08T14:45:33.246Z,15.57
2022-11-08T14:48:24.718Z,11.60
2022-11-08T14:51:11.709Z,7.32
2022-11-08T14:53:57.325Z,5.82
2022-11-08T14:57:12.689Z,5.93
2022-11-08T15:00:27.474Z,6.28
2022-11-08T15:03:32.883Z,6.38
2022-11-08T15:06:14.657Z,6.00
2022-11-08T15:09:05.972Z,6.75
2022-11-08T15:11:52.498Z,7.20
2022-11-08T15:15:08.862Z,8.35
2022-11-08T15:18:22.540Z,7.10
2022-11-08T15:21:00.290Z,7.43
2022-11-08T15:24:14.783Z,7.75
2022-11-08T15:29:28.409Z,6.10
2022-11-08T15:32:03.901Z,5.53
2022-11-08T15:34:55.508Z,7.35
2022-11-08T15:37:38.191Z,7.20
2022-11-08T15:40:25.220Z,7.32
2022-11-08T15:42:54.861Z,6.72
2022-11-08T15:45:33.317Z,5.63
2022-11-08T15:48:25.240Z,5.65
2022-11-08T15:51:02.496Z,4.78
2022-11-08T15:53:37.977Z,4.72
2022-11-08T15:56:14.330Z,4.18
2022-11-08T15:58:45.278Z,8.18
2022-11-08T16:01:26.195Z,7.50
2022-11-08T16:03:56.818Z,10.13
2022-11-08T16:06:37.614Z,11.20
2022-11-08T16:09:27.567Z,11.38
2022-11-08T16:12:01.398Z,10.40
2022-11-08T16:14:36.010Z,12.75
2022-11-08T16:17:08.794Z,11.02
2022-11-08T16:19:41.025Z,12.68
2022-11-08T16:22:19.410Z,12.73
2022-11-08T16:25:01.037Z,12.40
2022-11-08T16:27:57.777Z,10.18
2022-11-08T16:30:30.227Z,8.95
2022-11-08T16:32:58.739Z,8.73
2022-11-08T16:35:28.299Z,7.72
2022-11-08T16:38:05.793Z,7.10
2022-11-08T16:40:41.448Z,6.55
2022-11-08T16:43:28.021Z,6.88
2022-11-08T16:46:07.586Z,6.75
2022-11-08T16:48:44.589Z,7.20
2022-11-08T16:51:20.331Z,8.07
2022-11-08T16:53:55.931Z,7.43
2022-11-08T16:56:33.057Z,7.45
2022-11-08T16:59:09.636Z,9.30
2022-11-08T17:01:46.957Z,11.48
2022-11-08T17:04:30.337Z,9.23
2022-11-08T17:07:06.887Z,8.60
2022-11-08T17:09:39.367Z,9.00
2022-11-08T17:12:24.727Z,7.63
2022-11-08T17:15:04.555Z,7.35
2022-11-08T17:17:37.235Z,7.68
2022-11-08T17:20:14.304Z,8.05
2022-11-08T17:23:01.333Z,8.13
2022-11-08T17:25:33.154Z,8.27
2022-11-08T17:28:08.701Z,7.43
2022-11-08T17:30:46.330Z,7.57
2022-11-08T17:33:26.946Z,7.93
2022-11-08T17:36:25.876Z,8.45
2022-11-08T17:39:00.495Z,7.90
2022-11-08T17:41:33.920Z,8.15
2022-11-08T17:44:08.242Z,8.15
2022-11-08T17:46:41.229Z,8.40
2022-11-08T17:49:10.896Z,7.45
2022-11-08T17:51:44.282Z,9.18
2022-11-08T17:54:20.041Z,8.45
2022-11-08T17:57:07.252Z,8.20
2022-11-08T17:59:45.651Z,8.53
2022-11-08T18:02:19.902Z,8.80
2022-11-08T18:04:49.531Z,9.48
2022-11-08T18:07:18.998Z,8.95
2022-11-08T18:09:48.262Z,8.82
2022-11-08T18:12:22.260Z,9.30
2022-11-08T18:14:55.531Z,9.02
2022-11-08T18:17:27.532Z,8.27
2022-11-08T18:19:56.273Z,10.38
2022-11-08T18:22:25.521Z,9.20
2022-11-08T18:24:55.303Z,9.45
2022-11-08T18:27:26.944Z,9.15
2022-11-08T18:29:57.429Z,9.60
2022-11-08T18:32:42.541Z,9.57
2022-11-08T18:35:14.944Z,9.52
2022-11-08T18:37:46.207Z,8.95
2022-11-08T18:40:15.312Z,9.63
2022-11-08T18:42:45.070Z,10.02
2022-11-08T18:45:26.586Z,9.57
2022-11-08T18:47:55.887Z,9.30
2022-11-08T18:50:28.196Z,10.15
2022-11-08T18:53:04.852Z,10.23
2022-11-08T18:55:37.722Z,9.85
2022-11-08T18:58:10.608Z,8.93
2022-11-08T19:00:41.094Z,9.35
2022-11-08T19:03:12.863Z,10.10
2022-11-08T19:05:47.711Z,9.82
2022-11-08T19:08:43.445Z,9.30
2022-11-08T19:11:14.758Z,8.57
2022-11-08T19:13:43.917Z,9.75
2022-11-08T19:16:16.918Z,10.25
2022-11-08T19:18:49.764Z,12.15
2022-11-08T19:21:21.663Z,12.45
2022-11-08T19:23:55.341Z,14.43
2022-11-08T19:26:28.816Z,14.07
2022-11-08T19:29:05.482Z,13.60
2022-11-08T19:31:42.200Z,13.15
2022-11-08T19:34:21.007Z,12.35
2022-11-08T19:36:55.677Z,13.10
2022-11-08T19:39:25.204Z,12.45
2022-11-08T19:42:00.270Z,13.73
2022-11-08T19:47:00.785Z,17.77
2022-11-08T19:49:42.217Z,20.10
2022-11-08T19:52:18.055Z,20.92
2022-11-08T19:54:50.694Z,25.67
2022-11-08T19:57:24.247Z,24.98
2022-11-08T19:59:53.550Z,29.75
2022-11-08T20:02:24.159Z,28.58
2022-11-08T20:04:56.508Z,28.45
2022-11-08T20:07:25.151Z,25.38
2022-11-08T20:09:57.499Z,23.38
2022-11-08T20:12:26.451Z,21.48
2022-11-08T20:15:01.750Z,20.25
2022-11-08T20:17:37.691Z,20.13
2022-11-08T20:20:15.057Z,18.75
2022-11-08T20:25:33.661Z,15.25
2022-11-08T20:28:13.418Z,16.25
2022-11-08T20:31:54.136Z,17.42
2022-11-08T20:34:43.714Z,16.60
2022-11-08T20:37:22.565Z,14.85
2022-11-08T20:40:16.173Z,14.82
2022-11-08T20:42:49.311Z,13.90
2022-11-08T20:45:25.903Z,13.20
2022-11-08T20:48:02.450Z,13.32
2022-11-08T20:50:55.915Z,12.48
2022-11-08T20:53:34.722Z,12.95
2022-11-08T20:56:05.699Z,12.48
2022-11-08T20:58:42.642Z,10.93
2022-11-08T21:01:24.612Z,10.77
2022-11-08T21:03:58.782Z,10.07
2022-11-08T21:06:37.765Z,9.40
2022-11-08T21:09:41.639Z,10.18
2022-11-08T21:12:20.844Z,9.50
2022-11-08T21:14:56.271Z,8.90
2022-11-08T21:17:35.841Z,8.82
2022-11-08T21:20:09.830Z,9.32
2022-11-08T21:22:47.768Z,8.73
2022-11-08T21:25:22.144Z,8.63
2022-11-08T21:27:57.953Z,8.13
2022-11-08T21:30:36.377Z,8.40
2022-11-08T21:33:09.880Z,8.40
2022-11-08T21:35:39.896Z,8.95
2022-11-08T21:38:13.096Z,8.23
2022-11-08T21:40:42.602Z,8.75
2022-11-08T21:43:11.579Z,8.68
2022-11-08T21:45:41.307Z,8.80
2022-11-08T21:48:15.157Z,8.73
2022-11-08T21:50:55.979Z,9.13
2022-11-08T21:53:29.698Z,8.37
2022-11-08T21:56:04.458Z,7.55
2022-11-08T21:58:33.769Z,8.82
2022-11-08T22:02:05.033Z,8.80
2022-11-08T22:04:39.145Z,8.30
2022-11-08T22:07:11.649Z,7.78
2022-11-08T22:10:18.718Z,8.45
2022-11-08T22:13:08.790Z,8.32
2022-11-08T22:15:53.222Z,8.30
2022-11-08T22:19:03.580Z,8.93
2022-11-08T22:21:41.971Z,9.00
2022-11-08T22:24:34.439Z,9.20
2022-11-08T22:27:23.072Z,10.10
2022-11-08T22:29:57.328Z,10.52
2022-11-08T22:32:56.769Z,8.95
2022-11-08T22:35:38.480Z,9.60
2022-11-08T22:38:29.536Z,9.43
2022-11-08T22:44:54.936Z,8.95
2022-11-08T22:47:34.529Z,8.32
2022-11-08T22:56:07.059Z,9.02
2022-11-08T22:58:46.370Z,8.33
2022-11-08T23:01:16.784Z,8.95
2022-11-08T23:03:48.613Z,8.60
2022-11-08T23:06:26.794Z,9.05
2022-11-08T23:08:58.827Z,8.57
2022-11-08T23:14:51.211Z,7.90
2022-11-08T23:17:26.668Z,8.10
2022-11-08T23:20:23.305Z,8.95
2022-11-08T23:23:22.497Z,8.95
2022-11-08T23:25:54.669Z,9.02
2022-11-08T23:28:50.291Z,8.98
2022-11-08T23:31:40.531Z,8.85
2022-11-08T23:34:43.796Z,8.10
2022-11-08T23:37:43.377Z,9.70
2022-11-08T23:40:34.337Z,8.57
2022-11-08T23:43:32.095Z,9.65
2022-11-08T23:46:10.174Z,9.43
2022-11-08T23:48:51.351Z,9.38
2022-11-08T23:51:49.937Z,9.20
2022-11-08T23:54:36.559Z,9.93
2022-11-08T23:57:17.356Z,10.68
